createdAt,value
2018-03-14T00:02:29.698Z,71.01
2018-03-14T00:05:01.524Z,70.95
2018-03-14T00:07:32.982Z,70.77
2018-03-14T00:10:05.360Z,70.62
2018-03-14T00:12:37.062Z,71.11
2018-03-14T00:15:15.123Z,70.83
2018-03-14T00:17:47.885Z,70.16
2018-03-14T00:20:19.455Z,69.96
2018-03-14T00:22:50.838Z,70.09
2018-03-14T00:25:23.126Z,70.07
2018-03-14T00:27:54.699Z,70.00
2018-03-14T00:30:27.044Z,70.45
2018-03-14T00:32:59.212Z,70.27
2018-03-14T00:35:31.087Z,70.30
2018-03-14T00:38:02.387Z,70.17
2018-03-14T00:40:34.226Z,70.40
2018-03-14T00:43:05.716Z,69.74
2018-03-14T00:45:37.983Z,69.43
2018-03-14T00:48:11.026Z,70.12
2018-03-14T00:50:42.542Z,69.88
2018-03-14T00:53:14.745Z,69.72
2018-03-14T00:55:46.076Z,69.88
2018-03-14T00:58:17.496Z,69.61
2018-03-14T01:00:49.588Z,69.33
2018-03-14T01:03:21.139Z,69.45
2018-03-14T01:05:52.977Z,69.29
2018-03-14T01:08:24.577Z,69.52
2018-03-14T01:10:56.047Z,69.29
2018-03-14T01:13:27.686Z,69.47
2018-03-14T01:15:59.683Z,69.47
2018-03-14T01:18:32.080Z,69.32
2018-03-14T01:21:03.849Z,69.30
2018-03-14T01:23:35.371Z,69.50
2018-03-14T01:26:06.802Z,69.39
2018-03-14T01:28:38.554Z,69.28
2018-03-14T01:31:11.760Z,69.08
2018-03-14T01:33:43.770Z,69.16
2018-03-14T01:36:15.050Z,68.88
2018-03-14T01:38:47.465Z,68.98
2018-03-14T01:41:19.351Z,69.62
2018-03-14T01:43:52.383Z,70.08
2018-03-14T01:46:25.003Z,70.22
2018-03-14T01:48:56.758Z,70.32
2018-03-14T01:51:28.165Z,69.90
2018-03-14T01:53:59.873Z,69.81
2018-03-14T01:56:31.569Z,69.74
2018-03-14T01:59:03.145Z,69.67
2018-03-14T02:01:35.260Z,69.95
2018-03-14T02:04:07.488Z,69.90
2018-03-14T02:06:38.866Z,69.75
2018-03-14T02:09:10.752Z,69.87
2018-03-14T02:11:47.016Z,69.60
2018-03-14T02:14:19.500Z,69.69
2018-03-14T02:16:51.415Z,69.53
2018-03-14T02:19:31.704Z,69.51
2018-03-14T02:22:03.108Z,69.94
2018-03-14T02:24:35.297Z,69.44
2018-03-14T02:27:07.030Z,69.27
2018-03-14T02:29:38.760Z,69.33
2018-03-14T02:32:11.417Z,69.29
2018-03-14T02:34:42.718Z,68.71
2018-03-14T02:37:14.954Z,68.65
2018-03-14T02:39:46.212Z,69.01
2018-03-14T02:42:18.261Z,69.08
2018-03-14T02:44:49.437Z,68.87
2018-03-14T02:47:26.818Z,68.77
2018-03-14T02:49:58.005Z,68.93
2018-03-14T02:55:07.324Z,68.73
2018-03-14T02:57:38.229Z,69.13
2018-03-14T03:00:10.268Z,69.08
2018-03-14T03:02:41.696Z,69.02
2018-03-14T03:05:13.058Z,69.14
2018-03-14T03:07:43.980Z,68.96
2018-03-14T03:10:16.057Z,68.78
2018-03-14T03:12:47.469Z,68.81
2018-03-14T03:15:18.631Z,68.49
2018-03-14T03:17:49.721Z,68.28
2018-03-14T03:20:22.172Z,68.16
2018-03-14T03:22:53.238Z,68.34
2018-03-14T03:25:24.106Z,68.09
2018-03-14T03:27:55.066Z,68.33
2018-03-14T03:30:26.916Z,68.21
2018-03-14T03:32:57.596Z,68.48
2018-03-14T03:35:29.027Z,68.86
2018-03-14T03:38:01.599Z,68.83
2018-03-14T03:40:32.506Z,68.80
2018-03-14T03:43:03.671Z,68.54
2018-03-14T03:45:34.950Z,68.35
2018-03-14T03:48:05.816Z,68.33
2018-03-14T03:50:36.741Z,68.61
2018-03-14T03:53:07.314Z,68.41
2018-03-14T03:55:38.396Z,68.87
2018-03-14T03:58:10.237Z,68.76
2018-03-14T04:00:41.525Z,68.48
2018-03-14T04:03:13.444Z,68.51
2018-03-14T04:05:45.963Z,68.73
2018-03-14T04:08:19.935Z,68.53
2018-03-14T04:10:50.832Z,68.43
2018-03-14T04:13:21.761Z,68.57
2018-03-14T04:15:52.409Z,68.92
2018-03-14T04:18:23.345Z,68.64
2018-03-14T04:20:56.760Z,68.33
2018-03-14T04:23:27.813Z,68.99
2018-03-14T04:25:58.855Z,69.48
2018-03-14T04:28:29.553Z,69.88
2018-03-14T04:31:01.063Z,69.60
2018-03-14T04:33:31.730Z,69.81
2018-03-14T04:36:02.866Z,69.71
2018-03-14T04:38:34.489Z,69.20
2018-03-14T04:41:06.029Z,69.03
2018-03-14T04:43:37.498Z,69.35
2018-03-14T04:46:08.638Z,69.06
2018-03-14T04:48:39.756Z,69.10
2018-03-14T04:51:10.880Z,68.69
2018-03-14T04:53:42.305Z,68.93
2018-03-14T04:56:14.556Z,69.01
2018-03-14T04:58:45.507Z,69.23
2018-03-14T05:01:16.886Z,69.01
2018-03-14T05:03:47.852Z,68.95
2018-03-14T05:06:19.269Z,69.27
2018-03-14T05:08:50.988Z,70.15
2018-03-14T05:11:22.017Z,70.27
2018-03-14T05:13:52.844Z,70.04
2018-03-14T05:16:24.766Z,70.07
2018-03-14T05:18:56.030Z,69.77
2018-03-14T05:24:05.777Z,69.17
2018-03-14T05:26:37.438Z,68.94
2018-03-14T05:29:08.845Z,69.29
2018-03-14T05:31:41.059Z,69.09
2018-03-14T05:34:13.910Z,68.95
2018-03-14T05:36:45.151Z,69.31
2018-03-14T05:39:18.280Z,69.26
2018-03-14T05:41:51.030Z,69.26
2018-03-14T05:44:25.912Z,69.08
2018-03-14T05:47:00.014Z,69.11
2018-03-14T05:49:32.367Z,69.64
2018-03-14T05:52:04.657Z,69.75
2018-03-14T05:54:36.857Z,69.86
2018-03-14T05:57:09.523Z,69.37
2018-03-14T05:59:41.024Z,68.87
2018-03-14T06:02:17.291Z,68.73
2018-03-14T06:04:49.401Z,68.42
2018-03-14T06:07:24.187Z,68.48
2018-03-14T06:09:55.409Z,68.70
2018-03-14T06:12:27.377Z,68.89
2018-03-14T06:15:06.638Z,68.69
2018-03-14T06:17:38.782Z,68.54
2018-03-14T06:20:10.278Z,68.47
2018-03-14T06:22:42.035Z,68.81
2018-03-14T06:25:13.565Z,68.53
2018-03-14T06:27:45.571Z,68.44
2018-03-14T06:30:17.572Z,68.35
2018-03-14T06:32:50.235Z,68.36
2018-03-14T06:35:23.530Z,67.95
2018-03-14T06:37:55.167Z,67.54
2018-03-14T06:40:36.124Z,67.29
2018-03-14T06:43:09.416Z,66.77
2018-03-14T06:45:41.874Z,66.77
2018-03-14T06:48:14.059Z,66.73
2018-03-14T06:50:45.917Z,66.55
2018-03-14T06:53:28.505Z,66.76
2018-03-14T06:56:01.263Z,66.43
2018-03-14T06:58:47.014Z,65.17
2018-03-14T07:01:37.866Z,64.96
2018-03-14T07:04:19.538Z,64.24
2018-03-14T07:06:58.517Z,63.59
2018-03-14T07:09:31.866Z,62.95
2018-03-14T07:12:04.271Z,62.72
2018-03-14T07:14:35.542Z,62.50
2018-03-14T07:17:08.739Z,61.90
2018-03-14T07:19:40.260Z,57.76
2018-03-14T07:22:12.016Z,58.95
2018-03-14T07:24:43.469Z,58.98
2018-03-14T07:27:15.363Z,55.83
2018-03-14T07:29:47.858Z,57.97
2018-03-14T07:32:33.600Z,58.27
2018-03-14T07:35:05.961Z,58.02
2018-03-14T07:37:37.849Z,57.52
2018-03-14T07:40:09.539Z,57.48
2018-03-14T07:42:47.478Z,57.51
2018-03-14T07:45:20.677Z,56.26
2018-03-14T07:47:53.812Z,56.75
2018-03-14T07:50:25.619Z,57.67
2018-03-14T07:53:46.750Z,57.92
2018-03-14T07:56:19.085Z,56.90
2018-03-14T07:58:50.647Z,56.01
2018-03-14T08:01:25.806Z,55.24
2018-03-14T08:03:58.437Z,55.76
2018-03-14T08:06:31.003Z,57.50
2018-03-14T08:09:02.639Z,57.09
2018-03-14T08:11:35.769Z,57.18
2018-03-14T08:14:07.521Z,56.97
2018-03-14T08:16:39.597Z,57.37
2018-03-14T08:19:12.297Z,58.11
2018-03-14T08:21:44.738Z,58.44
2018-03-14T08:24:15.988Z,59.24
2018-03-14T08:26:47.820Z,60.33
2018-03-14T08:29:19.948Z,59.67
2018-03-14T08:31:51.814Z,58.73
2018-03-14T08:34:23.407Z,58.26
2018-03-14T08:36:55.632Z,58.81
2018-03-14T08:39:29.013Z,59.18
2018-03-14T08:42:02.682Z,58.84
2018-03-14T08:44:33.850Z,58.93
2018-03-14T08:47:10.706Z,58.83
2018-03-14T08:49:43.192Z,58.55
2018-03-14T08:52:16.970Z,56.38
2018-03-14T08:55:06.534Z,55.01
2018-03-14T08:57:40.221Z,48.99
2018-03-14T09:00:27.435Z,49.48
2018-03-14T09:02:59.018Z,47.82
2018-03-14T09:05:57.863Z,50.29
2018-03-14T09:08:30.171Z,47.13
2018-03-14T09:11:03.645Z,43.55
2018-03-14T09:13:42.465Z,45.02
2018-03-14T09:16:14.787Z,46.21
2018-03-14T09:18:50.043Z,45.60
2018-03-14T09:21:24.892Z,43.62
2018-03-14T09:23:56.660Z,42.65
2018-03-14T09:26:39.264Z,42.46
2018-03-14T09:29:13.346Z,43.00
2018-03-14T09:31:45.713Z,42.27
2018-03-14T09:34:17.369Z,44.06
2018-03-14T09:36:48.695Z,44.65
2018-03-14T09:39:20.763Z,43.45
2018-03-14T09:41:53.807Z,41.86
2018-03-14T09:44:25.023Z,39.88
2018-03-14T09:46:57.097Z,40.18
2018-03-14T09:49:30.788Z,38.73
2018-03-14T09:52:02.812Z,37.65
2018-03-14T09:54:48.584Z,38.46
2018-03-14T09:57:34.595Z,37.47
2018-03-14T10:00:16.979Z,37.81
2018-03-14T10:02:48.219Z,37.20
2018-03-14T10:05:19.776Z,37.68
2018-03-14T10:07:51.090Z,37.52
2018-03-14T10:10:23.312Z,37.27
2018-03-14T10:12:54.701Z,35.30
2018-03-14T10:15:28.147Z,34.28
2018-03-14T10:18:01.317Z,36.15
2018-03-14T10:20:33.307Z,34.26
2018-03-14T10:23:05.227Z,34.35
2018-03-14T10:25:38.852Z,33.00
2018-03-14T10:28:10.114Z,32.13
2018-03-14T10:33:09.296Z,31.91
2018-03-14T10:35:41.117Z,31.79
2018-03-14T10:38:12.874Z,31.27
2018-03-14T10:40:44.046Z,32.16
2018-03-14T10:43:16.285Z,32.25
2018-03-14T10:45:48.212Z,36.18
2018-03-14T10:48:19.696Z,35.96
2018-03-14T10:50:52.059Z,34.88
2018-03-14T10:56:07.985Z,31.05
2018-03-14T10:58:42.959Z,31.12
2018-03-14T11:01:15.342Z,31.29
2018-03-14T11:03:47.770Z,31.32
2018-03-14T11:06:25.371Z,29.36
2018-03-14T11:09:14.710Z,30.79
2018-03-14T11:11:57.122Z,30.76
2018-03-14T11:14:30.329Z,29.98
2018-03-14T11:17:09.001Z,29.70
2018-03-14T11:19:44.285Z,29.57
2018-03-14T11:22:28.439Z,30.75
2018-03-14T11:25:00.511Z,30.36
2018-03-14T11:27:33.068Z,31.72
2018-03-14T11:30:08.432Z,32.29
2018-03-14T11:32:41.846Z,30.23
2018-03-14T11:35:13.145Z,29.32
2018-03-14T11:37:44.679Z,29.31
2018-03-14T11:40:17.152Z,30.45
2018-03-14T11:42:49.939Z,29.73
2018-03-14T11:45:21.905Z,30.94
2018-03-14T11:47:54.765Z,31.40
2018-03-14T11:50:26.606Z,30.76
2018-03-14T11:52:57.367Z,29.92
2018-03-14T11:55:39.137Z,28.19
2018-03-14T11:58:14.827Z,28.89
2018-03-14T12:00:47.735Z,27.34
2018-03-14T12:03:27.410Z,28.13
2018-03-14T12:06:01.954Z,27.83
2018-03-14T12:08:33.058Z,28.02
2018-03-14T12:11:04.281Z,28.09
2018-03-14T12:13:36.906Z,28.39
2018-03-14T12:16:09.768Z,28.34
2018-03-14T12:18:43.633Z,28.05
2018-03-14T12:21:15.025Z,28.01
2018-03-14T12:23:45.958Z,30.21
2018-03-14T12:26:18.900Z,29.13
2018-03-14T12:28:51.689Z,29.72
2018-03-14T12:31:23.792Z,29.45
2018-03-14T12:33:55.355Z,29.85
2018-03-14T12:36:26.351Z,31.35
2018-03-14T12:38:57.943Z,30.95
2018-03-14T12:41:29.201Z,30.56
2018-03-14T12:44:00.408Z,30.36
2018-03-14T12:46:33.540Z,30.31
2018-03-14T12:49:05.909Z,29.92
2018-03-14T12:51:38.050Z,28.77
2018-03-14T12:54:09.021Z,29.38
2018-03-14T12:56:40.894Z,29.60
2018-03-14T12:59:11.960Z,29.95
2018-03-14T13:01:43.559Z,29.81
2018-03-14T13:04:15.016Z,29.58
2018-03-14T13:06:46.186Z,29.64
2018-03-14T13:09:18.835Z,29.21
2018-03-14T13:11:50.315Z,29.26
2018-03-14T13:14:21.843Z,29.00
2018-03-14T13:16:54.156Z,27.60
2018-03-14T13:19:26.757Z,28.20
2018-03-14T13:21:58.637Z,28.45
2018-03-14T13:24:34.835Z,28.83
2018-03-14T13:27:06.474Z,29.00
2018-03-14T13:29:37.970Z,28.72
2018-03-14T13:32:09.243Z,28.06
2018-03-14T13:34:41.406Z,31.51
2018-03-14T13:37:12.579Z,31.25
2018-03-14T13:39:45.494Z,29.89
2018-03-14T13:42:18.020Z,29.39
2018-03-14T13:44:49.552Z,28.91
2018-03-14T13:47:21.187Z,28.86
2018-03-14T13:49:53.444Z,28.55
2018-03-14T13:52:25.330Z,29.67
2018-03-14T13:54:56.662Z,29.29
2018-03-14T13:57:27.621Z,30.81
2018-03-14T13:59:59.980Z,30.56
2018-03-14T14:02:32.286Z,31.44
2018-03-14T14:05:03.997Z,31.36
2018-03-14T14:07:35.275Z,31.16
2018-03-14T14:10:07.507Z,32.05
2018-03-14T14:12:50.543Z,32.17
2018-03-14T14:15:24.212Z,31.91
2018-03-14T14:18:00.374Z,33.03
2018-03-14T14:20:31.755Z,33.74
2018-03-14T14:23:03.295Z,34.16
2018-03-14T14:25:59.358Z,34.61
2018-03-14T14:28:42.216Z,35.20
2018-03-14T14:31:15.551Z,35.13
2018-03-14T14:33:49.599Z,35.12
2018-03-14T14:36:21.528Z,35.65
2018-03-14T14:38:53.253Z,36.09
2018-03-14T14:41:28.113Z,36.06
2018-03-14T14:44:01.627Z,36.23
2018-03-14T14:46:37.703Z,36.22
2018-03-14T14:49:10.155Z,36.44
2018-03-14T14:51:41.337Z,36.23
2018-03-14T14:54:12.652Z,35.92
2018-03-14T14:56:44.074Z,35.86
2018-03-14T14:59:16.036Z,34.93
2018-03-14T15:01:48.222Z,34.64
2018-03-14T15:04:20.533Z,34.67
2018-03-14T15:06:52.102Z,34.54
2018-03-14T15:09:23.770Z,34.76
2018-03-14T15:11:55.240Z,35.03
2018-03-14T15:14:29.933Z,35.41
2018-03-14T15:17:03.411Z,35.55
2018-03-14T15:19:35.260Z,35.55
2018-03-14T15:22:08.487Z,35.44
2018-03-14T15:24:53.116Z,35.98
2018-03-14T15:27:25.624Z,36.50
2018-03-14T15:29:58.886Z,36.10
2018-03-14T15:32:31.303Z,36.42
2018-03-14T15:35:10.864Z,36.85
2018-03-14T15:37:48.717Z,36.02
2018-03-14T15:40:21.798Z,36.72
2018-03-14T15:42:54.557Z,36.86
2018-03-14T15:45:31.937Z,36.94
2018-03-14T15:48:17.188Z,36.83
2018-03-14T15:50:53.890Z,37.34
2018-03-14T15:53:27.777Z,36.85
2018-03-14T15:55:59.446Z,36.65
2018-03-14T15:58:32.976Z,37.02
2018-03-14T16:01:13.205Z,37.00
2018-03-14T16:03:54.160Z,36.47
2018-03-14T16:06:25.973Z,35.79
2018-03-14T16:08:57.510Z,36.86
2018-03-14T16:11:30.029Z,36.60
2018-03-14T16:14:00.977Z,35.92
2018-03-14T16:16:32.323Z,36.07
2018-03-14T16:19:03.231Z,36.66
2018-03-14T16:21:36.015Z,37.02
2018-03-14T16:24:07.522Z,37.34
2018-03-14T16:26:39.169Z,37.35
2018-03-14T16:29:10.742Z,37.51
2018-03-14T16:31:45.072Z,38.07
2018-03-14T16:34:16.762Z,38.28
2018-03-14T16:36:49.468Z,38.65
2018-03-14T16:39:20.667Z,38.57
2018-03-14T16:41:55.303Z,38.34
2018-03-14T16:44:28.296Z,38.72
2018-03-14T16:46:59.674Z,38.61
2018-03-14T16:49:30.485Z,38.74
2018-03-14T16:52:01.780Z,39.13
2018-03-14T16:54:34.026Z,38.69
2018-03-14T16:57:06.928Z,39.06
2018-03-14T16:59:45.216Z,39.53
2018-03-14T17:02:17.398Z,39.64
2018-03-14T17:04:48.632Z,39.48
2018-03-14T17:07:22.676Z,39.98
2018-03-14T17:09:56.660Z,39.78
2018-03-14T17:12:27.557Z,40.44
2018-03-14T17:14:58.539Z,40.03
2018-03-14T17:17:30.068Z,39.97
2018-03-14T17:20:02.448Z,40.45
2018-03-14T17:22:33.733Z,40.26
2018-03-14T17:25:15.882Z,40.37
2018-03-14T17:27:47.426Z,40.38
2018-03-14T17:30:23.846Z,40.20
2018-03-14T17:32:55.474Z,40.41
2018-03-14T17:35:26.475Z,40.76
2018-03-14T17:37:57.950Z,41.13
2018-03-14T17:40:31.593Z,41.41
2018-03-14T17:43:05.466Z,41.08
2018-03-14T17:45:38.679Z,41.25
2018-03-14T17:48:09.885Z,41.55
2018-03-14T17:50:41.880Z,41.52
2018-03-14T17:53:14.240Z,41.74
2018-03-14T17:55:46.140Z,41.91
2018-03-14T17:58:18.344Z,42.05
2018-03-14T18:00:51.682Z,42.42
2018-03-14T18:03:23.827Z,42.46
2018-03-14T18:05:55.243Z,42.73
2018-03-14T18:08:27.650Z,42.72
2018-03-14T18:11:05.524Z,42.72
2018-03-14T18:13:38.407Z,43.36
2018-03-14T18:16:33.223Z,43.07
2018-03-14T18:19:31.807Z,43.28
2018-03-14T18:22:12.308Z,43.54
2018-03-14T18:24:43.964Z,43.60
2018-03-14T18:27:17.290Z,43.79
2018-03-14T18:29:48.262Z,44.20
2018-03-14T18:32:30.805Z,44.21
2018-03-14T18:35:04.783Z,44.78
2018-03-14T18:37:38.045Z,45.41
2018-03-14T18:40:09.332Z,45.57
2018-03-14T18:42:41.163Z,45.71
2018-03-14T18:45:16.965Z,46.02
2018-03-14T18:47:49.181Z,46.45
2018-03-14T18:50:22.001Z,46.61
2018-03-14T18:52:54.149Z,47.19
2018-03-14T18:58:10.175Z,46.97
2018-03-14T19:00:46.456Z,47.17
2018-03-14T19:03:18.646Z,47.64
2018-03-14T19:05:51.982Z,47.90
2018-03-14T19:08:23.969Z,48.14
2018-03-14T19:10:57.643Z,48.31
2018-03-14T19:13:32.721Z,48.28
2018-03-14T19:16:08.089Z,48.08
2018-03-14T19:18:39.602Z,48.22
2018-03-14T19:21:10.505Z,48.55
2018-03-14T19:23:42.448Z,48.53
2018-03-14T19:26:13.469Z,48.83
2018-03-14T19:28:45.273Z,48.70
2018-03-14T19:31:17.858Z,48.83
2018-03-14T19:33:52.781Z,49.01
2018-03-14T19:36:25.904Z,49.27
2018-03-14T19:39:00.231Z,49.32
2018-03-14T19:41:31.520Z,49.29
2018-03-14T19:44:02.642Z,49.23
2018-03-14T19:46:34.771Z,49.34
2018-03-14T19:49:05.741Z,49.22
2018-03-14T19:51:36.812Z,49.10
2018-03-14T19:54:12.572Z,48.96
2018-03-14T19:56:43.799Z,49.11
2018-03-14T19:59:14.721Z,49.04
2018-03-14T20:01:47.609Z,49.27
2018-03-14T20:04:19.657Z,49.57
2018-03-14T20:06:50.824Z,49.72
2018-03-14T20:09:22.010Z,49.68
2018-03-14T20:11:57.707Z,49.76
2018-03-14T20:14:31.562Z,50.03
2018-03-14T20:17:04.333Z,50.17
2018-03-14T20:19:36.420Z,50.27
2018-03-14T20:22:12.319Z,50.04
2018-03-14T20:24:44.628Z,50.23
2018-03-14T20:27:15.578Z,50.38
2018-03-14T20:29:47.825Z,50.50
2018-03-14T20:32:19.154Z,50.38
2018-03-14T20:34:51.724Z,50.66
2018-03-14T20:37:22.674Z,50.57
2018-03-14T20:39:53.626Z,50.52
2018-03-14T20:42:25.685Z,50.89
2018-03-14T20:44:58.916Z,51.10
2018-03-14T20:47:30.755Z,51.17
2018-03-14T20:50:01.876Z,51.23
2018-03-14T20:52:33.898Z,51.05
2018-03-14T20:55:05.283Z,51.33
2018-03-14T20:57:37.074Z,51.21
2018-03-14T21:00:09.601Z,51.48
2018-03-14T21:02:41.292Z,51.16
2018-03-14T21:05:12.649Z,51.10
2018-03-14T21:07:44.849Z,51.22
2018-03-14T21:10:15.997Z,51.43
2018-03-14T21:12:47.692Z,51.71
2018-03-14T21:15:19.856Z,52.16
2018-03-14T21:17:52.985Z,51.75
2018-03-14T21:20:24.384Z,51.96
2018-03-14T21:22:57.011Z,51.99
2018-03-14T21:25:28.348Z,52.07
2018-03-14T21:28:00.884Z,52.09
2018-03-14T21:30:36.471Z,52.05
2018-03-14T21:33:07.535Z,52.11
2018-03-14T21:35:45.993Z,52.26
2018-03-14T21:38:17.112Z,52.72
2018-03-14T21:40:47.933Z,52.51
2018-03-14T21:43:19.298Z,52.66
2018-03-14T21:45:50.282Z,52.76
2018-03-14T21:48:21.819Z,52.75
2018-03-14T21:50:58.898Z,53.13
2018-03-14T21:53:30.014Z,53.28
2018-03-14T21:56:01.846Z,53.19
2018-03-14T21:58:33.506Z,53.33
2018-03-14T22:01:05.675Z,53.49
2018-03-14T22:03:42.834Z,53.41
2018-03-14T22:06:13.960Z,53.70
2018-03-14T22:08:44.936Z,53.94
2018-03-14T22:11:16.558Z,53.96
2018-03-14T22:13:47.443Z,54.10
2018-03-14T22:16:18.677Z,54.04
2018-03-14T22:18:51.370Z,54.23
2018-03-14T22:21:23.842Z,54.24
2018-03-14T22:24:01.300Z,54.30
2018-03-14T22:26:33.067Z,54.45
2018-03-14T22:29:06.159Z,54.66
2018-03-14T22:31:38.295Z,54.48
2018-03-14T22:34:09.669Z,54.52
2018-03-14T22:36:41.815Z,54.67
2018-03-14T22:39:15.374Z,54.79
2018-03-14T22:41:48.637Z,54.44
2018-03-14T22:44:21.113Z,54.54
2018-03-14T22:46:54.075Z,54.61
2018-03-14T22:49:27.032Z,54.54
2018-03-14T22:52:07.586Z,54.67
2018-03-14T22:54:39.317Z,54.65
2018-03-14T22:57:10.922Z,54.65
2018-03-14T22:59:42.549Z,54.82
2018-03-14T23:02:14.013Z,54.68
2018-03-14T23:04:45.182Z,54.75
2018-03-14T23:07:16.736Z,54.59
2018-03-14T23:09:49.455Z,54.79
2018-03-14T23:12:20.531Z,54.47
2018-03-14T23:15:05.770Z,54.44
2018-03-14T23:17:39.383Z,54.31
2018-03-14T23:20:13.737Z,54.50
2018-03-14T23:22:45.939Z,54.30
2018-03-14T23:25:17.909Z,54.20
2018-03-14T23:27:51.151Z,54.38
2018-03-14T23:30:22.898Z,54.44
2018-03-14T23:32:55.258Z,54.53
2018-03-14T23:35:26.255Z,54.14
2018-03-14T23:37:57.537Z,54.39
2018-03-14T23:40:29.409Z,54.17
2018-03-14T23:43:04.098Z,54.06
2018-03-14T23:45:35.969Z,54.29
2018-03-14T23:48:07.573Z,54.16
2018-03-14T23:50:38.790Z,54.10
2018-03-14T23:53:10.303Z,53.99
2018-03-14T23:55:41.422Z,53.98
2018-03-14T23:58:12.522Z,54.16
